Huvudsida
METAR-TAF:

METAR-TAF

Flygplatser :

Abumusa, Iran

latitud: 25-52-33N, longitud: 055-02-01E, höjd: 7 m

Aktuellt väderrapport

Denna rapport gjordes för 32 minuter sedan, klockan 04:00 UTC
Vind 12 kt från nord
Temperatur 22°C
Fuktighet 83%
Tryck 1012 hPa
Sikt: 3000 m
Få moln på en höjd av 1500 ft
Få moln på en höjd av 2500 ft, Cumulonimbus.
Spridda moln på en höjd av 3000 ft
Mulet på en höjd av 9000 ft
regn

METAR: OIBA 200400Z 01012KT 3000 RA FEW015 FEW025CB SCT030 OVC090 22/19 Q1012

Tid: 08:02 (04:32 UTC)


TAF: saknas

Aktuella väderrapporter och prognoser från 4000 flygplatser (METAR- och TAF-rapporter).

De tillgängliga stationerna syns som gula och röda prickar på kartan.

För musen över prickarna för att se namnen på stationerna.

Klicka sedan för att få väderrapporter och prognoser.

För att ändra kartan: Klicka på de gröna knapparna med ett svart kors på för att zooma in; den gröna knappen med ett streck på för att zooma ut; eller på de gröna pilarna för angränsande kartor.


METAR-TAF: